createdAt,value
2022-12-25T00:05:44.377Z,4.85
2022-12-25T00:13:18.540Z,4.25
2022-12-25T00:21:02.453Z,4.25
2022-12-25T00:28:37.101Z,4.30
2022-12-25T00:43:47.528Z,3.83
2022-12-25T00:51:22.783Z,7.23
2022-12-25T00:58:57.109Z,6.90
2022-12-25T01:06:32.643Z,6.90
2022-12-25T01:14:06.701Z,5.63
2022-12-25T01:21:42.091Z,5.60
2022-12-25T01:29:16.002Z,5.55
2022-12-25T01:36:51.466Z,4.97
2022-12-25T01:45:25.561Z,4.80
2022-12-25T01:53:00.908Z,5.82
2022-12-25T02:00:34.731Z,5.53
2022-12-25T02:08:12.287Z,5.67
2022-12-25T02:15:55.775Z,6.07
2022-12-25T02:23:58.731Z,6.05
2022-12-25T02:31:46.478Z,6.68
2022-12-25T02:39:42.603Z,6.50
2022-12-25T02:47:36.750Z,6.30
2022-12-25T02:55:33.539Z,7.05
2022-12-25T03:03:28.288Z,6.95
2022-12-25T03:11:22.179Z,7.93
2022-12-25T03:18:59.473Z,8.60
2022-12-25T03:26:51.744Z,8.20
2022-12-25T03:34:56.890Z,10.48
2022-12-25T03:43:04.196Z,8.55
2022-12-25T03:51:02.831Z,9.23
2022-12-25T03:58:54.317Z,7.93
2022-12-25T04:06:47.103Z,8.43
2022-12-25T04:14:38.559Z,7.68
2022-12-25T04:22:31.292Z,8.73
2022-12-25T04:30:23.602Z,8.45
2022-12-25T04:37:59.142Z,8.13
2022-12-25T04:45:33.172Z,8.75
2022-12-25T04:53:08.515Z,8.75
2022-12-25T05:00:42.781Z,9.35
2022-12-25T05:08:17.938Z,9.05
2022-12-25T05:15:51.925Z,8.25
2022-12-25T05:23:27.268Z,9.10
2022-12-25T05:31:01.833Z,7.40
2022-12-25T05:38:37.281Z,6.72
2022-12-25T05:46:12.296Z,8.10
2022-12-25T05:53:47.539Z,7.15
2022-12-25T06:01:23.793Z,6.00
2022-12-25T06:08:59.047Z,5.30
2022-12-25T06:16:37.969Z,5.90
2022-12-25T06:24:20.855Z,5.80
2022-12-25T06:31:57.629Z,5.38
2022-12-25T06:39:33.460Z,6.15
2022-12-25T06:47:07.209Z,4.80
2022-12-25T06:54:42.455Z,4.53
2022-12-25T07:02:20.577Z,6.03
2022-12-25T07:09:55.931Z,5.13
2022-12-25T07:17:30.029Z,4.70
2022-12-25T07:25:05.820Z,4.45
2022-12-25T07:32:43.241Z,4.72
2022-12-25T07:40:20.874Z,4.80
2022-12-25T07:47:55.227Z,5.60
2022-12-25T07:55:30.849Z,5.18
2022-12-25T08:03:05.320Z,5.43
2022-12-25T08:10:46.278Z,4.85
2022-12-25T08:18:22.239Z,5.18
2022-12-25T08:26:05.430Z,4.90
2022-12-25T08:33:39.864Z,4.25
2022-12-25T08:41:16.224Z,4.38
2022-12-25T08:48:51.561Z,5.00
2022-12-25T08:56:27.764Z,4.85
2022-12-25T09:04:01.651Z,5.75
2022-12-25T09:11:36.925Z,5.15
2022-12-25T09:19:10.820Z,5.88
2022-12-25T09:26:46.164Z,6.90
2022-12-25T09:34:20.365Z,6.78
2022-12-25T09:41:59.464Z,6.45
2022-12-25T09:49:39.996Z,7.32
2022-12-25T09:57:16.338Z,7.82
2022-12-25T10:05:04.576Z,6.82
2022-12-25T10:12:53.697Z,7.43
2022-12-25T10:20:38.666Z,7.05
2022-12-25T10:28:16.593Z,10.05
2022-12-25T10:35:51.137Z,9.90
2022-12-25T10:43:32.345Z,9.60
2022-12-25T10:51:06.935Z,10.55
2022-12-25T10:58:42.199Z,11.43
2022-12-25T11:06:25.962Z,11.45
2022-12-25T11:14:04.002Z,11.65
2022-12-25T11:21:38.627Z,11.68
2022-12-25T11:29:24.628Z,11.85
2022-12-25T11:37:00.532Z,11.30
2022-12-25T11:44:45.223Z,12.60
2022-12-25T11:52:21.185Z,12.90
2022-12-25T12:00:01.824Z,12.90
2022-12-25T12:07:37.130Z,12.35
2022-12-25T12:15:19.883Z,11.30
2022-12-25T12:22:53.904Z,10.45
2022-12-25T12:30:32.345Z,10.27
2022-12-25T12:38:12.045Z,9.00
2022-12-25T12:45:47.454Z,10.15
2022-12-25T12:53:32.974Z,9.13
2022-12-25T13:01:17.375Z,9.25
2022-12-25T13:09:04.411Z,10.20
2022-12-25T13:16:42.313Z,10.13
2022-12-25T13:24:21.735Z,9.07
2022-12-25T13:31:58.086Z,10.60
2022-12-25T13:39:32.614Z,10.23
2022-12-25T13:47:20.639Z,10.02
2022-12-25T13:54:56.647Z,9.52
2022-12-25T14:02:36.680Z,8.50
2022-12-25T14:10:14.454Z,8.07
2022-12-25T14:17:51.105Z,8.45
2022-12-25T14:25:30.807Z,8.90
2022-12-25T14:33:07.782Z,9.70
2022-12-25T14:40:45.292Z,9.00
2022-12-25T14:48:25.448Z,6.95
2022-12-25T14:55:59.781Z,8.55
2022-12-25T15:03:38.156Z,8.10
2022-12-25T15:11:12.063Z,7.72
2022-12-25T15:18:50.430Z,9.50
2022-12-25T15:26:25.056Z,8.32
2022-12-25T15:41:55.983Z,7.63
2022-12-25T15:49:31.217Z,8.68
2022-12-25T15:57:07.707Z,9.75
2022-12-25T16:04:43.073Z,9.27
2022-12-25T16:12:17.324Z,9.30
2022-12-25T16:19:52.749Z,10.27
2022-12-25T16:27:26.841Z,9.13
2022-12-25T16:35:02.121Z,10.10
2022-12-25T16:42:37.338Z,9.70
2022-12-25T16:50:13.079Z,9.40
2022-12-25T16:57:48.440Z,10.13
2022-12-25T17:05:24.250Z,10.32
2022-12-25T17:12:58.164Z,10.02
2022-12-25T17:20:33.579Z,10.30
2022-12-25T17:28:07.853Z,10.30
2022-12-25T17:35:43.147Z,12.43
2022-12-25T17:43:21.018Z,10.48
2022-12-25T17:51:01.604Z,9.60
2022-12-25T17:58:35.549Z,9.60
2022-12-25T18:06:13.403Z,9.90
2022-12-25T18:13:50.122Z,9.10
2022-12-25T18:21:25.413Z,12.52
2022-12-25T18:28:59.330Z,9.90
2022-12-25T18:36:35.158Z,11.00
2022-12-25T18:44:10.047Z,9.68
2022-12-25T18:51:45.606Z,10.52
2022-12-25T18:59:19.750Z,11.27
2022-12-25T19:06:55.197Z,11.93
2022-12-25T19:14:29.302Z,12.90
2022-12-25T19:22:04.604Z,12.37
2022-12-25T19:29:38.807Z,11.52
2022-12-25T19:37:15.141Z,10.83
2022-12-25T19:44:50.708Z,10.95
2022-12-25T19:52:26.099Z,10.98
2022-12-25T20:00:00.154Z,9.98
2022-12-25T20:07:35.528Z,11.17
2022-12-25T20:15:10.490Z,9.88
2022-12-25T20:22:45.740Z,11.23
2022-12-25T20:30:19.839Z,10.80
2022-12-25T20:37:55.260Z,10.80
2022-12-25T20:45:29.439Z,11.90
2022-12-25T20:53:04.860Z,11.13
2022-12-25T21:00:40.307Z,10.63
2022-12-25T21:08:29.063Z,10.20
2022-12-25T21:16:06.966Z,10.20
2022-12-25T21:23:43.126Z,11.15
2022-12-25T21:31:18.041Z,9.82
2022-12-25T21:38:58.425Z,9.98
2022-12-25T21:46:33.098Z,9.55
2022-12-25T21:54:09.242Z,8.50
2022-12-25T22:01:44.332Z,9.50
2022-12-25T22:09:20.006Z,10.38
2022-12-25T22:17:11.400Z,8.13
2022-12-25T22:24:46.641Z,8.23
2022-12-25T22:32:21.393Z,9.20
2022-12-25T22:47:30.719Z,8.47
2022-12-25T22:55:07.699Z,8.43
2022-12-25T23:02:41.637Z,8.40
2022-12-25T23:10:17.058Z,8.90
2022-12-25T23:18:08.438Z,7.80
2022-12-25T23:26:02.299Z,7.80
2022-12-25T23:33:36.404Z,7.40
2022-12-25T23:41:11.689Z,7.77
2022-12-25T23:48:46.873Z,6.43
2022-12-25T23:56:22.494Z,7.25
